createdAt,value
2022-08-31T00:01:41.417Z,3.20
2022-08-31T00:04:11.389Z,3.22
2022-08-31T00:06:40.014Z,3.30
2022-08-31T00:09:08.893Z,3.40
2022-08-31T00:11:38.697Z,3.60
2022-08-31T00:14:12.454Z,3.40
2022-08-31T00:16:42.702Z,3.30
2022-08-31T00:19:11.145Z,3.33
2022-08-31T00:21:40.085Z,3.20
2022-08-31T00:24:08.557Z,3.38
2022-08-31T00:26:37.342Z,3.38
2022-08-31T00:29:07.164Z,3.67
2022-08-31T00:31:35.637Z,3.20
2022-08-31T00:34:04.050Z,3.88
2022-08-31T00:36:32.614Z,3.60
2022-08-31T00:39:01.015Z,3.50
2022-08-31T00:41:31.292Z,3.38
2022-08-31T00:44:01.576Z,3.83
2022-08-31T00:46:32.504Z,3.40
2022-08-31T00:49:04.568Z,3.88
2022-08-31T00:51:34.240Z,3.40
2022-08-31T00:54:02.974Z,3.63
2022-08-31T00:56:32.228Z,3.47
2022-08-31T00:59:01.151Z,3.42
2022-08-31T01:01:31.429Z,3.60
2022-08-31T01:04:00.308Z,3.63
2022-08-31T01:06:29.125Z,3.55
2022-08-31T01:08:59.146Z,3.10
2022-08-31T01:11:27.746Z,3.63
2022-08-31T01:13:56.243Z,3.55
2022-08-31T01:16:26.951Z,3.42
2022-08-31T01:18:58.880Z,3.60
2022-08-31T01:21:28.887Z,3.30
2022-08-31T01:24:00.308Z,3.70
2022-08-31T01:26:29.948Z,3.45
2022-08-31T01:29:00.742Z,3.42
2022-08-31T01:31:30.633Z,3.45
2022-08-31T01:33:59.051Z,3.30
2022-08-31T01:36:28.457Z,3.50
2022-08-31T01:38:56.901Z,3.20
2022-08-31T01:41:26.850Z,3.25
2022-08-31T01:43:55.298Z,3.33
2022-08-31T01:46:23.756Z,3.55
2022-08-31T01:48:52.316Z,3.03
2022-08-31T01:51:22.414Z,3.85
2022-08-31T01:53:51.859Z,3.35
2022-08-31T01:56:21.476Z,3.58
2022-08-31T01:58:51.709Z,2.80
2022-08-31T02:01:32.958Z,3.22
2022-08-31T02:04:02.583Z,3.35
2022-08-31T02:06:31.019Z,3.53
2022-08-31T02:08:59.668Z,3.80
2022-08-31T02:11:28.167Z,3.83
2022-08-31T02:13:57.959Z,3.70
2022-08-31T02:16:26.531Z,3.60
2022-08-31T02:18:55.112Z,3.03
2022-08-31T02:21:23.669Z,3.40
2022-08-31T02:23:52.061Z,3.63
2022-08-31T02:26:20.461Z,3.40
2022-08-31T02:28:49.062Z,3.55
2022-08-31T02:31:19.060Z,3.40
2022-08-31T02:33:47.748Z,3.78
2022-08-31T02:36:16.199Z,3.47
2022-08-31T02:38:45.469Z,3.20
2022-08-31T02:41:13.873Z,3.30
2022-08-31T02:43:42.361Z,3.80
2022-08-31T02:46:10.855Z,3.72
2022-08-31T02:48:40.677Z,3.70
2022-08-31T02:51:10.600Z,3.88
2022-08-31T02:53:39.283Z,4.05
2022-08-31T02:56:09.094Z,3.70
2022-08-31T02:58:37.661Z,4.15
2022-08-31T03:01:06.341Z,3.58
2022-08-31T03:03:35.557Z,3.63
2022-08-31T03:06:05.595Z,3.35
2022-08-31T03:08:33.952Z,3.78
2022-08-31T03:11:02.572Z,3.80
2022-08-31T03:13:30.945Z,3.85
2022-08-31T03:15:59.629Z,4.30
2022-08-31T03:18:28.040Z,3.33
2022-08-31T03:20:56.442Z,4.13
2022-08-31T03:23:26.356Z,4.63
2022-08-31T03:25:54.752Z,3.72
2022-08-31T03:28:23.116Z,4.18
2022-08-31T03:30:51.581Z,4.68
2022-08-31T03:33:20.163Z,4.00
2022-08-31T03:35:49.134Z,3.63
2022-08-31T03:38:17.523Z,4.20
2022-08-31T03:40:47.908Z,4.35
2022-08-31T03:43:16.626Z,3.67
2022-08-31T03:45:45.407Z,4.00
2022-08-31T03:48:13.925Z,4.15
2022-08-31T03:50:43.115Z,4.15
2022-08-31T03:53:12.492Z,3.65
2022-08-31T03:55:42.099Z,3.40
2022-08-31T03:58:12.609Z,3.45
2022-08-31T04:00:41.779Z,3.55
2022-08-31T04:03:10.321Z,4.22
2022-08-31T04:05:43.542Z,3.83
2022-08-31T04:08:12.377Z,4.00
2022-08-31T04:10:41.145Z,3.80
2022-08-31T04:13:09.558Z,4.63
2022-08-31T04:15:39.623Z,4.55
2022-08-31T04:18:08.428Z,4.80
2022-08-31T04:20:36.872Z,4.20
2022-08-31T04:23:05.407Z,4.75
2022-08-31T04:25:34.175Z,4.78
2022-08-31T04:28:03.771Z,5.00
2022-08-31T04:30:32.308Z,5.47
2022-08-31T04:33:02.538Z,5.25
2022-08-31T04:35:30.942Z,5.15
2022-08-31T04:37:59.329Z,5.00
2022-08-31T04:40:28.009Z,4.80
2022-08-31T04:42:56.535Z,5.82
2022-08-31T04:45:25.305Z,5.20
2022-08-31T04:47:53.967Z,5.57
2022-08-31T04:50:23.887Z,5.28
2022-08-31T04:53:03.504Z,5.15
2022-08-31T04:55:32.835Z,5.30
2022-08-31T04:58:01.485Z,6.03
2022-08-31T05:00:30.046Z,5.55
2022-08-31T05:02:58.589Z,5.40
2022-08-31T05:05:28.539Z,4.75
2022-08-31T05:07:57.014Z,5.70
2022-08-31T05:10:25.542Z,5.10
2022-08-31T05:12:54.446Z,5.50
2022-08-31T05:15:23.049Z,5.32
2022-08-31T05:17:51.503Z,5.65
2022-08-31T05:20:20.110Z,5.13
2022-08-31T05:22:50.471Z,5.40
2022-08-31T05:25:18.997Z,5.43
2022-08-31T05:27:48.051Z,5.40
2022-08-31T05:30:16.640Z,5.15
2022-08-31T05:32:45.730Z,5.10
2022-08-31T05:35:14.176Z,4.65
2022-08-31T05:37:42.760Z,5.00
2022-08-31T05:40:13.545Z,5.20
2022-08-31T05:42:41.985Z,5.13
2022-08-31T05:45:10.668Z,4.68
2022-08-31T05:47:39.130Z,4.35
2022-08-31T05:50:08.402Z,4.38
2022-08-31T05:52:36.952Z,4.97
2022-08-31T05:55:05.568Z,5.32
2022-08-31T05:57:35.321Z,4.68
2022-08-31T06:00:03.777Z,4.82
2022-08-31T06:02:32.323Z,4.82
2022-08-31T06:05:00.800Z,4.93
2022-08-31T06:07:29.359Z,5.53
2022-08-31T06:09:58.065Z,5.60
2022-08-31T06:12:26.575Z,5.20
2022-08-31T06:14:56.565Z,5.35
2022-08-31T06:17:26.618Z,5.57
2022-08-31T06:19:58.056Z,5.35
2022-08-31T06:22:26.611Z,5.20
2022-08-31T06:24:55.193Z,5.07
2022-08-31T06:27:24.891Z,4.90
2022-08-31T06:29:53.355Z,4.68
2022-08-31T06:32:23.692Z,3.90
2022-08-31T06:34:52.103Z,4.10
2022-08-31T06:37:20.606Z,4.72
2022-08-31T06:39:48.992Z,3.80
2022-08-31T06:42:17.490Z,3.70
2022-08-31T06:44:45.886Z,3.78
2022-08-31T06:47:14.285Z,3.65
2022-08-31T06:49:44.050Z,3.78
2022-08-31T06:52:12.564Z,3.78
2022-08-31T06:54:41.128Z,4.07
2022-08-31T06:57:09.511Z,4.53
2022-08-31T06:59:37.973Z,3.47
2022-08-31T07:02:06.484Z,3.75
2022-08-31T07:04:35.569Z,3.42
2022-08-31T07:07:06.837Z,3.60
2022-08-31T07:09:35.521Z,3.40
2022-08-31T07:12:04.082Z,4.18
2022-08-31T07:14:32.482Z,3.63
2022-08-31T07:17:03.020Z,3.53
2022-08-31T07:19:31.724Z,3.58
2022-08-31T07:22:01.341Z,3.28
2022-08-31T07:24:33.297Z,3.30
2022-08-31T07:27:04.321Z,3.97
2022-08-31T07:29:40.294Z,3.55
2022-08-31T07:32:09.368Z,3.55
2022-08-31T07:34:38.426Z,3.95
2022-08-31T07:37:25.444Z,3.97
2022-08-31T07:40:13.432Z,3.95
2022-08-31T07:42:43.366Z,3.78
2022-08-31T07:45:13.709Z,3.88
2022-08-31T07:47:45.425Z,4.25
2022-08-31T07:50:14.322Z,3.90
2022-08-31T07:52:47.195Z,4.10
2022-08-31T07:55:18.440Z,4.80
2022-08-31T07:57:47.292Z,4.50
2022-08-31T08:00:18.136Z,4.25
2022-08-31T08:02:52.858Z,4.07
2022-08-31T08:05:26.895Z,4.50
2022-08-31T08:07:58.839Z,3.85
2022-08-31T08:10:30.053Z,4.47
2022-08-31T08:13:04.867Z,4.20
2022-08-31T08:15:35.420Z,4.10
2022-08-31T08:18:04.287Z,4.30
2022-08-31T08:20:37.802Z,4.20
2022-08-31T08:23:11.285Z,4.10
2022-08-31T08:25:41.093Z,4.18
2022-08-31T08:28:37.998Z,4.53
2022-08-31T08:31:05.978Z,4.30
2022-08-31T08:33:36.090Z,4.30
2022-08-31T08:36:07.668Z,3.67
2022-08-31T08:38:39.105Z,3.83
2022-08-31T08:41:13.704Z,4.25
2022-08-31T08:43:43.914Z,4.40
2022-08-31T08:46:33.439Z,4.82
2022-08-31T08:49:05.075Z,4.60
2022-08-31T08:51:35.968Z,4.28
2022-08-31T08:54:06.705Z,4.40
2022-08-31T08:56:47.652Z,4.25
2022-08-31T08:59:19.521Z,3.80
2022-08-31T09:01:50.010Z,4.45
2022-08-31T09:04:23.764Z,4.70
2022-08-31T09:06:54.732Z,4.50
2022-08-31T09:09:41.280Z,4.10
2022-08-31T09:12:18.994Z,4.40
2022-08-31T09:14:53.738Z,4.20
2022-08-31T09:17:30.701Z,4.38
2022-08-31T09:20:05.640Z,4.45
2022-08-31T09:22:35.353Z,4.75
2022-08-31T09:25:04.310Z,3.90
2022-08-31T09:27:46.805Z,4.53
2022-08-31T09:30:17.905Z,3.78
2022-08-31T09:32:58.112Z,3.80
2022-08-31T09:35:29.183Z,3.45
2022-08-31T09:38:02.021Z,4.82
2022-08-31T09:40:38.692Z,3.65
2022-08-31T09:43:10.191Z,4.22
2022-08-31T09:45:50.409Z,3.45
2022-08-31T09:48:39.847Z,3.35
2022-08-31T09:51:08.527Z,3.03
2022-08-31T09:53:59.161Z,3.05
2022-08-31T09:56:27.953Z,3.17
2022-08-31T09:59:01.538Z,3.60
2022-08-31T10:01:32.989Z,2.95
2022-08-31T10:04:17.146Z,3.03
2022-08-31T10:06:49.822Z,3.53
2022-08-31T10:09:22.381Z,2.88
2022-08-31T10:11:52.842Z,3.50
2022-08-31T10:14:26.769Z,2.90
2022-08-31T10:16:57.282Z,3.58
2022-08-31T10:19:34.782Z,3.17
2022-08-31T10:22:06.217Z,3.60
2022-08-31T10:24:39.194Z,3.08
2022-08-31T10:27:10.204Z,3.97
2022-08-31T10:29:44.161Z,3.95
2022-08-31T10:32:18.176Z,3.80
2022-08-31T10:35:06.963Z,3.58
2022-08-31T10:37:39.028Z,4.28
2022-08-31T10:40:09.765Z,3.95
2022-08-31T10:42:41.082Z,3.97
2022-08-31T10:45:18.258Z,3.88
2022-08-31T10:47:49.154Z,3.78
2022-08-31T10:50:23.205Z,4.43
2022-08-31T10:52:58.249Z,4.10
2022-08-31T10:55:33.100Z,3.70
2022-08-31T10:58:06.013Z,3.42
2022-08-31T11:00:45.695Z,3.92
2022-08-31T11:03:15.994Z,4.38
2022-08-31T11:05:50.556Z,4.28
2022-08-31T11:08:29.672Z,3.42
2022-08-31T11:10:59.213Z,4.32
2022-08-31T11:13:42.828Z,4.90
2022-08-31T11:16:32.715Z,4.22
2022-08-31T11:19:17.644Z,4.32
2022-08-31T11:22:10.011Z,4.72
2022-08-31T11:24:48.788Z,4.90
2022-08-31T11:27:23.496Z,4.55
2022-08-31T11:29:57.350Z,4.97
2022-08-31T11:32:34.236Z,4.18
2022-08-31T11:35:10.105Z,4.68
2022-08-31T11:37:57.882Z,4.43
2022-08-31T11:40:44.977Z,4.60
2022-08-31T11:43:15.118Z,5.05
2022-08-31T11:45:44.387Z,4.70
2022-08-31T11:48:37.720Z,4.45
2022-08-31T11:51:08.293Z,4.40
2022-08-31T11:53:38.555Z,4.72
2022-08-31T11:56:07.235Z,4.82
2022-08-31T11:58:38.393Z,4.93
2022-08-31T12:01:22.498Z,4.70
2022-08-31T12:03:52.544Z,5.10
2022-08-31T12:06:40.255Z,4.78
2022-08-31T12:09:21.825Z,5.50
2022-08-31T12:11:54.706Z,4.88
2022-08-31T12:14:27.274Z,5.30
2022-08-31T12:17:02.718Z,5.60
2022-08-31T12:19:52.896Z,5.55
2022-08-31T12:22:48.474Z,4.80
2022-08-31T12:25:25.369Z,5.57
2022-08-31T12:27:59.689Z,5.40
2022-08-31T12:30:30.026Z,5.45
2022-08-31T12:33:03.759Z,6.07
2022-08-31T12:35:33.712Z,5.25
2022-08-31T12:38:04.255Z,5.57
2022-08-31T12:40:35.773Z,5.60
2022-08-31T12:43:06.333Z,5.35
2022-08-31T12:46:05.426Z,5.35
2022-08-31T12:48:54.451Z,5.15
2022-08-31T12:51:27.741Z,5.72
2022-08-31T12:54:03.564Z,5.05
2022-08-31T12:56:37.602Z,5.53
2022-08-31T12:59:15.221Z,4.93
2022-08-31T13:01:45.375Z,5.43
2022-08-31T13:04:16.274Z,5.80
2022-08-31T13:06:48.201Z,5.38
2022-08-31T13:09:27.341Z,5.00
2022-08-31T13:11:57.873Z,5.45
2022-08-31T13:14:27.341Z,5.32
2022-08-31T13:16:57.433Z,5.22
2022-08-31T13:19:27.021Z,5.30
2022-08-31T13:21:56.864Z,5.40
2022-08-31T13:24:30.823Z,5.53
2022-08-31T13:27:07.639Z,6.07
2022-08-31T13:29:41.213Z,6.10
2022-08-31T13:32:10.393Z,5.72
2022-08-31T13:34:42.104Z,5.60
2022-08-31T13:37:16.452Z,6.40
2022-08-31T13:39:46.212Z,5.78
2022-08-31T13:42:25.491Z,5.43
2022-08-31T13:44:55.753Z,5.78
2022-08-31T13:47:27.487Z,6.40
2022-08-31T13:49:58.433Z,5.32
2022-08-31T13:52:28.061Z,5.88
2022-08-31T13:55:01.117Z,5.15
2022-08-31T13:57:34.989Z,5.45
2022-08-31T14:00:18.509Z,5.90
2022-08-31T14:02:46.960Z,6.05
2022-08-31T14:05:29.021Z,6.18
2022-08-31T14:07:59.073Z,5.20
2022-08-31T14:10:30.095Z,5.72
2022-08-31T14:13:01.166Z,5.60
2022-08-31T14:15:36.140Z,5.90
2022-08-31T14:18:24.341Z,5.65
2022-08-31T14:21:21.148Z,5.35
2022-08-31T14:23:52.649Z,5.10
2022-08-31T14:26:22.817Z,5.40
2022-08-31T14:28:53.621Z,5.05
2022-08-31T14:31:24.628Z,6.47
2022-08-31T14:33:59.820Z,5.53
2022-08-31T14:36:28.266Z,5.93
2022-08-31T14:38:58.632Z,5.32
2022-08-31T14:41:29.909Z,5.35
2022-08-31T14:44:06.949Z,5.45
2022-08-31T14:46:36.073Z,5.22
2022-08-31T14:49:05.353Z,5.35
2022-08-31T14:51:34.174Z,5.93
2022-08-31T14:54:02.783Z,5.60
2022-08-31T14:56:33.207Z,5.78
2022-08-31T14:59:04.397Z,6.25
2022-08-31T15:01:35.600Z,5.80
2022-08-31T15:04:05.643Z,5.75
2022-08-31T15:06:34.274Z,6.00
2022-08-31T15:09:04.176Z,6.38
2022-08-31T15:11:37.007Z,6.07
2022-08-31T15:14:12.390Z,6.38
2022-08-31T15:16:42.321Z,6.03
2022-08-31T15:19:13.444Z,5.57
2022-08-31T15:21:44.793Z,5.97
2022-08-31T15:24:14.598Z,6.13
2022-08-31T15:26:44.054Z,5.32
2022-08-31T15:29:16.457Z,5.72
2022-08-31T15:31:46.590Z,5.85
2022-08-31T15:34:19.236Z,6.25
2022-08-31T15:36:55.107Z,6.32
2022-08-31T15:39:23.829Z,6.35
2022-08-31T15:41:52.360Z,6.10
2022-08-31T15:44:22.407Z,5.82
2022-08-31T15:47:08.202Z,5.43
2022-08-31T15:49:37.668Z,5.63
2022-08-31T15:52:06.953Z,5.57
2022-08-31T15:54:35.776Z,6.00
2022-08-31T15:57:06.070Z,5.65
2022-08-31T15:59:36.390Z,5.45
2022-08-31T16:02:06.515Z,5.75
2022-08-31T16:04:38.430Z,5.50
2022-08-31T16:07:09.285Z,6.00
2022-08-31T16:09:43.678Z,6.07
2022-08-31T16:12:12.424Z,6.22
2022-08-31T16:14:45.034Z,6.30
2022-08-31T16:17:15.168Z,5.78
2022-08-31T16:19:43.600Z,5.68
2022-08-31T16:22:12.101Z,5.88
2022-08-31T16:24:40.554Z,5.88
2022-08-31T16:27:11.508Z,6.40
2022-08-31T16:29:40.152Z,5.90
2022-08-31T16:32:10.014Z,5.85
2022-08-31T16:34:39.234Z,5.70
2022-08-31T16:37:08.554Z,5.70
2022-08-31T16:39:37.603Z,5.72
2022-08-31T16:42:06.317Z,6.60
2022-08-31T16:44:36.724Z,5.93
2022-08-31T16:47:06.713Z,6.00
2022-08-31T16:49:36.317Z,6.65
2022-08-31T16:52:06.389Z,6.63
2022-08-31T16:54:35.933Z,6.70
2022-08-31T16:57:04.330Z,6.25
2022-08-31T16:59:32.766Z,5.80
2022-08-31T17:02:01.212Z,5.88
2022-08-31T17:04:51.123Z,5.55
2022-08-31T17:07:20.268Z,6.45
2022-08-31T17:09:48.768Z,6.30
2022-08-31T17:12:19.189Z,6.30
2022-08-31T17:14:51.809Z,5.70
2022-08-31T17:17:21.273Z,6.63
2022-08-31T17:19:50.107Z,6.53
2022-08-31T17:22:28.444Z,5.50
2022-08-31T17:25:03.554Z,6.05
2022-08-31T17:27:33.473Z,6.13
2022-08-31T17:30:05.764Z,6.47
2022-08-31T17:32:36.604Z,6.28
2022-08-31T17:35:18.009Z,6.47
2022-08-31T17:37:50.732Z,5.85
2022-08-31T17:40:19.659Z,6.95
2022-08-31T17:42:48.406Z,6.40
2022-08-31T17:45:17.482Z,5.90
2022-08-31T17:47:45.853Z,6.28
2022-08-31T17:50:17.685Z,6.55
2022-08-31T17:52:47.279Z,6.30
2022-08-31T17:55:17.608Z,6.90
2022-08-31T17:57:46.005Z,6.20
2022-08-31T18:00:15.923Z,5.68
2022-08-31T18:02:44.623Z,6.47
2022-08-31T18:05:16.436Z,6.93
2022-08-31T18:07:45.949Z,6.20
2022-08-31T18:10:14.779Z,6.68
2022-08-31T18:12:46.219Z,6.75
2022-08-31T18:15:18.916Z,6.28
2022-08-31T18:17:47.977Z,7.03
2022-08-31T18:20:16.416Z,6.63
2022-08-31T18:22:46.888Z,6.28
2022-08-31T18:25:17.382Z,6.65
2022-08-31T18:27:48.522Z,5.80
2022-08-31T18:30:18.198Z,6.78
2022-08-31T18:32:49.209Z,5.80
2022-08-31T18:35:17.755Z,6.20
2022-08-31T18:37:46.236Z,5.20
2022-08-31T18:40:32.149Z,6.00
2022-08-31T18:43:19.484Z,6.15
2022-08-31T18:45:49.409Z,5.40
2022-08-31T18:48:25.156Z,5.35
2022-08-31T18:50:58.846Z,5.90
2022-08-31T18:53:29.178Z,5.90
2022-08-31T18:55:59.003Z,5.13
2022-08-31T18:58:29.937Z,5.28
2022-08-31T19:00:59.224Z,5.13
2022-08-31T19:03:28.066Z,4.93
2022-08-31T19:05:56.650Z,5.68
2022-08-31T19:08:25.342Z,5.50
2022-08-31T19:10:57.945Z,5.55
2022-08-31T19:13:31.187Z,5.95
2022-08-31T19:16:05.764Z,5.10
2022-08-31T19:18:39.429Z,5.43
2022-08-31T19:21:18.936Z,5.32
2022-08-31T19:23:47.690Z,5.25
2022-08-31T19:26:23.530Z,5.50
2022-08-31T19:28:52.348Z,5.72
2022-08-31T19:31:22.604Z,5.53
2022-08-31T19:33:56.465Z,5.18
2022-08-31T19:36:27.276Z,5.43
2022-08-31T19:38:57.141Z,5.45
2022-08-31T19:41:26.078Z,5.00
2022-08-31T19:44:05.701Z,5.38
2022-08-31T19:46:38.675Z,4.95
2022-08-31T19:49:09.655Z,5.03
2022-08-31T19:51:40.217Z,5.30
2022-08-31T19:54:11.687Z,4.88
2022-08-31T19:56:41.246Z,5.18
2022-08-31T19:59:10.558Z,4.97
2022-08-31T20:01:41.330Z,5.10
2022-08-31T20:04:14.432Z,5.68
2022-08-31T20:06:45.362Z,5.55
2022-08-31T20:09:14.268Z,5.43
2022-08-31T20:11:47.447Z,5.78
2022-08-31T20:14:16.147Z,5.70
2022-08-31T20:16:46.518Z,5.43
2022-08-31T20:19:20.692Z,5.57
2022-08-31T20:21:53.874Z,5.18
2022-08-31T20:24:24.348Z,5.30
2022-08-31T20:26:55.478Z,5.43
2022-08-31T20:29:25.677Z,4.95
2022-08-31T20:31:56.061Z,4.93
2022-08-31T20:34:27.977Z,5.18
2022-08-31T20:37:01.284Z,5.40
2022-08-31T20:39:30.698Z,5.93
2022-08-31T20:42:00.399Z,5.55
2022-08-31T20:44:31.407Z,5.13
2022-08-31T20:47:20.075Z,5.30
2022-08-31T20:49:53.605Z,5.25
2022-08-31T20:52:22.698Z,5.38
2022-08-31T20:54:52.582Z,5.55
2022-08-31T20:57:30.575Z,5.97
2022-08-31T21:00:00.381Z,5.50
2022-08-31T21:02:31.793Z,5.18
2022-08-31T21:05:15.267Z,5.43
2022-08-31T21:07:48.802Z,5.55
2022-08-31T21:10:21.223Z,5.03
2022-08-31T21:13:05.496Z,5.13
2022-08-31T21:15:33.872Z,5.80
2022-08-31T21:18:03.649Z,5.45
2022-08-31T21:20:32.712Z,5.47
2022-08-31T21:23:01.074Z,5.50
2022-08-31T21:25:29.511Z,6.43
2022-08-31T21:27:57.917Z,5.90
2022-08-31T21:30:26.270Z,5.70
2022-08-31T21:32:54.634Z,6.07
2022-08-31T21:35:24.453Z,5.75
2022-08-31T21:37:52.819Z,4.97
2022-08-31T21:40:21.361Z,6.35
2022-08-31T21:42:50.010Z,5.57
2022-08-31T21:45:18.511Z,5.93
2022-08-31T21:47:46.929Z,6.22
2022-08-31T21:50:15.354Z,6.00
2022-08-31T21:52:45.119Z,5.97
2022-08-31T21:55:15.788Z,5.95
2022-08-31T21:57:44.531Z,5.68
2022-08-31T22:00:17.061Z,6.20
2022-08-31T22:02:47.011Z,6.03
2022-08-31T22:05:15.686Z,6.18
2022-08-31T22:07:45.480Z,7.00
2022-08-31T22:10:14.022Z,6.35
2022-08-31T22:12:42.430Z,6.18
2022-08-31T22:15:13.185Z,6.30
2022-08-31T22:18:04.738Z,6.25
2022-08-31T22:20:32.916Z,6.47
2022-08-31T22:23:02.761Z,7.53
2022-08-31T22:25:33.440Z,6.78
2022-08-31T22:28:02.162Z,7.38
2022-08-31T22:30:31.128Z,6.57
2022-08-31T22:32:59.679Z,6.55
2022-08-31T22:35:28.159Z,6.93
2022-08-31T22:37:56.553Z,6.88
2022-08-31T22:40:27.662Z,6.78
2022-08-31T22:42:58.605Z,6.65
2022-08-31T22:45:27.337Z,6.55
2022-08-31T22:47:55.770Z,6.55
2022-08-31T22:50:24.152Z,6.82
2022-08-31T22:52:52.768Z,6.35
2022-08-31T22:55:21.134Z,7.18
2022-08-31T22:57:51.588Z,7.07
2022-08-31T23:00:23.858Z,6.53
2022-08-31T23:02:52.797Z,6.78
2022-08-31T23:05:21.694Z,6.82
2022-08-31T23:07:50.230Z,7.10
2022-08-31T23:10:19.565Z,6.70
2022-08-31T23:12:51.133Z,6.88
2022-08-31T23:15:22.488Z,5.97
2022-08-31T23:17:53.436Z,7.30
2022-08-31T23:20:24.401Z,6.93
2022-08-31T23:22:55.030Z,6.32
2022-08-31T23:25:24.923Z,6.68
2022-08-31T23:27:53.629Z,7.13
2022-08-31T23:30:25.636Z,7.28
2022-08-31T23:32:54.357Z,7.30
2022-08-31T23:35:24.489Z,7.10
2022-08-31T23:37:54.322Z,7.53
2022-08-31T23:40:22.733Z,7.47
2022-08-31T23:42:51.181Z,6.38
2022-08-31T23:45:19.610Z,7.22
2022-08-31T23:47:51.708Z,7.70
2022-08-31T23:50:20.257Z,6.45
2022-08-31T23:52:52.100Z,7.00
2022-08-31T23:55:21.900Z,7.07
2022-08-31T23:57:50.269Z,6.88
